Pittsburgh, Pennsylvania
Traffic Map
Current Weather Conditions
Pittsburgh, Pennsylvania
Clear
Clear
75°
Feels Like: 75°
Wind Chill: 75° Ceiling: Unl
Heat Index: 75° Visibility: 10mi
Dew Point: 57° Wind: 3mph
Humidity: 53% Direction: 80° (E)
Pressure: 30.06in Gusts: 0mph
Raw Report DataKAGC 170153Z AUTO 08003KT 10SM CLR 24/14 A3006 RMK AO2 SLP176 T02390139
Traffic Incident Summary
Active as of:
Severity:
Category:
InformationThere was an issue retrieving the traffic information for this location. Please try a different location or try again shortly.
Advertisements